Time;durP1;ratioP1;P1;durP2;ratioP2;P2;SDS_P1;SDS_P2;PMS_P1;PMS_P2;Temp;Humidity;BMP_temperature;BMP_pressure;BME280_temperature;BME280_humidity;BME280_pressure;Samples;Min_cycle;Max_cycle;Signal;HPM_P1;HPM_P2
2022/01/07 00:00:47;;;;;;;;;;;;;;;3.84;74.91;93324.16;5111334;28;19959;-33
2022/01/07 00:03:13;;;;;;;;;;;;;;;3.87;74.59;93329.84;5111508;28;19972;-34
2022/01/07 00:05:38;;;;;;;;;;;;;;;3.92;74.47;93335.25;5111529;28;20426;-33
2022/01/07 00:08:04;;;;;;;;;;;;;;;3.83;74.00;93344.53;5111679;28;19907;-34
2022/01/07 00:10:29;;;;;;;;;;;;;;;3.83;74.43;93344.53;5111624;28;19912;-34
2022/01/07 00:12:54;;;;;;;;;;;;;;;3.91;73.54;93344.72;5111401;28;19953;-34
2022/01/07 00:15:20;;;;;;;;;;;;;;;3.97;73.17;93350.13;5111351;28;19915;-34
2022/01/07 00:17:45;;;;;;;;;;;;;;;3.91;73.06;93352.91;5111093;28;19908;-33
2022/01/07 00:20:11;;;;;;;;;;;;;;;3.90;72.86;93359.63;5110518;28;19907;-34
2022/01/07 00:22:40;;;;;;;;;;;;;;;3.79;72.58;93335.88;5111227;28;19915;-34
2022/01/07 00:25:06;;;;;;;;;;;;;;;3.96;72.40;93357.59;5111493;28;19965;-34
2022/01/07 00:27:31;;;;;;;;;;;;;;;3.98;71.39;93366.03;5111200;28;20396;-34
2022/01/07 00:29:56;;;;;;;;;;;;;;;3.95;71.58;93358.84;5111284;28;20006;-34
2022/01/07 00:32:22;;;;;;;;;;;;;;;3.87;71.45;93359.91;5111202;28;19907;-33
2022/01/07 00:34:48;;;;;;;;;;;;;;;3.91;71.86;93363.84;5111379;28;19915;-34
2022/01/07 00:37:13;;;;;;;;;;;;;;;3.96;71.32;93368.53;5111412;28;19957;-34
2022/01/07 00:39:38;;;;;;;;;;;;;;;3.88;70.79;93373.03;5111128;28;20002;-34
2022/01/07 00:42:04;;;;;;;;;;;;;;;3.95;70.27;93367.03;5111321;28;19942;-34
2022/01/07 00:44:29;;;;;;;;;;;;;;;3.86;70.91;93372.81;5111312;28;20278;-34
2022/01/07 00:46:54;;;;;;;;;;;;;;;3.93;69.62;93372.28;5111065;28;20216;-34
2022/01/07 00:49:22;;;;;;;;;;;;;;;3.78;70.41;93380.81;5111237;28;19912;-34
2022/01/07 00:51:50;;;;;;;;;;;;;;;3.70;70.08;93368.94;5110869;28;20362;-33
2022/01/07 00:54:15;;;;;;;;;;;;;;;3.69;70.55;93383.09;5110235;28;19911;-34
2022/01/07 00:56:41;;;;;;;;;;;;;;;3.74;70.01;93374.16;5110843;28;19915;-34
2022/01/07 00:59:06;;;;;;;;;;;;;;;3.61;70.97;93380.19;5111110;28;19907;-34
2022/01/07 01:01:32;;;;;;;;;;;;;;;3.69;70.13;93377.63;5110768;28;19938;-34
2022/01/07 01:03:57;;;;;;;;;;;;;;;3.56;70.25;93382.94;5111061;28;19908;-33
2022/01/07 01:06:22;;;;;;;;;;;;;;;3.52;70.78;93380.47;5110814;28;19956;-34
2022/01/07 01:08:48;;;;;;;;;;;;;;;3.55;70.74;93370.53;5110695;28;20018;-34
2022/01/07 01:11:13;;;;;;;;;;;;;;;3.57;69.63;93368.03;5110776;28;19908;-34
2022/01/07 01:13:38;;;;;;;;;;;;;;;3.56;70.10;93380.19;5110788;28;19908;-34
2022/01/07 01:16:04;;;;;;;;;;;;;;;3.50;69.74;93363.88;5110588;28;19907;-33
2022/01/07 01:18:29;;;;;;;;;;;;;;;3.52;69.32;93375.03;5110765;28;19907;-33
2022/01/07 01:20:54;;;;;;;;;;;;;;;3.39;69.75;93366.66;5110933;28;19907;-34
2022/01/07 01:23:20;;;;;;;;;;;;;;;3.43;70.03;93369.09;5110676;28;20293;-33
2022/01/07 01:25:45;;;;;;;;;;;;;;;3.46;69.61;93371.59;5110729;28;20350;-33
2022/01/07 01:28:10;;;;;;;;;;;;;;;3.35;69.15;93376.34;5110743;28;20373;-34
2022/01/07 01:30:36;;;;;;;;;;;;;;;3.30;69.22;93379.84;5112453;28;20028;-34
2022/01/07 01:33:01;;;;;;;;;;;;;;;3.30;69.32;93380.59;5114413;28;19964;-34
2022/01/07 01:35:27;;;;;;;;;;;;;;;3.24;69.39;93379.88;5114322;28;19961;-34
2022/01/07 01:37:52;;;;;;;;;;;;;;;3.33;69.35;93387.03;5114359;28;19914;-33
2022/01/07 01:40:18;;;;;;;;;;;;;;;3.28;69.47;93385.06;5114445;28;19936;-33
2022/01/07 01:42:43;;;;;;;;;;;;;;;3.23;68.88;93385.84;5114506;28;20002;-33
2022/01/07 01:45:09;;;;;;;;;;;;;;;3.11;69.36;93390.59;5114317;28;20277;-34
2022/01/07 01:47:35;;;;;;;;;;;;;;;3.07;70.09;93395.56;5114133;28;20020;-33
2022/01/07 01:50:00;;;;;;;;;;;;;;;3.07;69.60;93395.56;5113920;28;19915;-34
2022/01/07 01:52:25;;;;;;;;;;;;;;;3.05;70.26;93400.78;5113976;28;19957;-34
2022/01/07 01:54:51;;;;;;;;;;;;;;;2.86;69.88;93400.59;5113385;28;19912;-33
2022/01/07 01:57:16;;;;;;;;;;;;;;;2.83;70.41;93398.13;5147070;27;19908;-33
2022/01/07 01:59:41;;;;;;;;;;;;;;;2.79;71.28;93394.91;5113689;28;19916;-33
2022/01/07 02:02:07;;;;;;;;;;;;;;;2.79;71.92;93397.66;5113825;28;19918;-34
2022/01/07 02:04:33;;;;;;;;;;;;;;;2.86;71.16;93397.09;5114073;28;19916;-33
2022/01/07 02:06:58;;;;;;;;;;;;;;;2.80;71.17;93402.59;5113761;28;19908;-34
2022/01/07 02:09:32;;;;;;;;;;;;;;;2.75;72.07;93395.16;5146753;27;20449;-33
2022/01/07 02:11:58;;;;;;;;;;;;;;;2.74;71.50;93399.13;5113522;28;19990;-33
2022/01/07 02:14:23;;;;;;;;;;;;;;;2.69;71.57;93408.06;5113843;28;19950;-33
2022/01/07 02:16:48;;;;;;;;;;;;;;;2.69;71.73;93410.03;5113503;28;20294;-34
2022/01/07 02:19:14;;;;;;;;;;;;;;;2.65;71.41;93404.09;5113798;28;19907;-34
2022/01/07 02:21:39;;;;;;;;;;;;;;;2.57;71.63;93411.31;5113719;28;19907;-34
2022/01/07 02:24:05;;;;;;;;;;;;;;;2.59;70.93;93412.31;5113691;28;20420;-34
2022/01/07 02:26:32;;;;;;;;;;;;;;;2.62;71.02;93426.91;5113418;28;19966;-33
2022/01/07 02:28:57;;;;;;;;;;;;;;;2.66;70.85;93416.50;5146433;27;19922;-33
2022/01/07 02:31:22;;;;;;;;;;;;;;;2.47;71.41;93419.00;5113341;28;19907;-33
2022/01/07 02:33:48;;;;;;;;;;;;;;;2.50;71.70;93415.28;5112735;28;19949;-33
2022/01/07 02:36:13;;;;;;;;;;;;;;;2.37;72.12;93422.47;5112725;28;19908;-34
2022/01/07 02:38:38;;;;;;;;;;;;;;;2.30;71.87;93429.16;5111934;28;20407;-33
2022/01/07 02:41:04;;;;;;;;;;;;;;;2.27;73.15;93430.88;5112608;27;19908;-33
2022/01/07 02:43:29;;;;;;;;;;;;;;;2.10;73.40;93438.31;5112561;28;19907;-33
2022/01/07 02:45:55;;;;;;;;;;;;;;;2.06;73.44;93437.81;5146207;27;20324;-34
2022/01/07 02:48:20;;;;;;;;;;;;;;;2.14;73.18;93446.25;5112691;28;20010;-34
2022/01/07 02:50:45;;;;;;;;;;;;;;;2.16;72.97;93438.34;5111565;28;19912;-33
2022/01/07 02:53:11;;;;;;;;;;;;;;;2.16;73.13;93447.25;5112485;28;20013;-33
2022/01/07 02:55:37;;;;;;;;;;;;;;;2.05;73.42;93441.03;5113146;28;19965;-33
2022/01/07 02:58:02;;;;;;;;;;;;;;;2.01;74.07;93446.00;5112592;28;19907;-33
2022/01/07 03:00:28;;;;;;;;;;;;;;;1.92;74.16;93436.09;5112395;28;19923;-33
2022/01/07 03:02:54;;;;;;;;;;;;;;;1.91;74.03;93447.44;5112629;28;19908;-34
2022/01/07 03:05:19;;;;;;;;;;;;;;;1.94;73.49;93441.03;5112861;28;20320;-33
2022/01/07 03:07:47;;;;;;;;;;;;;;;1.43;74.71;93444.84;5146026;27;19915;-33
2022/01/07 03:10:13;;;;;;;;;;;;;;;1.41;75.26;93455.50;5112322;28;19912;-33
2022/01/07 03:12:40;;;;;;;;;;;;;;;1.39;75.49;93453.28;5112456;28;19971;-33
2022/01/07 03:15:05;;;;;;;;;;;;;;;1.26;76.92;93457.66;5112514;28;19915;-33
2022/01/07 03:17:31;;;;;;;;;;;;;;;1.30;76.55;93461.63;5112273;28;19907;-33
2022/01/07 03:19:56;;;;;;;;;;;;;;;1.52;76.99;93474.56;5112356;28;19911;-33
2022/01/07 03:22:21;;;;;;;;;;;;;;;1.58;76.64;93477.31;5112243;28;19908;-33
2022/01/07 03:24:47;;;;;;;;;;;;;;;1.60;76.74;93475.59;5112183;28;20008;-34
2022/01/07 03:27:12;;;;;;;;;;;;;;;1.63;77.25;93480.06;5112139;28;19916;-33
2022/01/07 03:29:37;;;;;;;;;;;;;;;1.64;76.29;93478.09;5112041;28;19911;-33
2022/01/07 03:32:03;;;;;;;;;;;;;;;1.58;76.27;93490.94;5112076;28;19960;-33
2022/01/07 03:34:28;;;;;;;;;;;;;;;1.49;77.13;93494.63;5112000;28;19914;-33
2022/01/07 03:36:54;;;;;;;;;;;;;;;1.62;76.46;93496.88;5112073;28;19951;-34
2022/01/07 03:39:19;;;;;;;;;;;;;;;1.68;76.35;93490.22;5111988;28;19907;-34
2022/01/07 03:41:44;;;;;;;;;;;;;;;1.57;76.28;93492.16;5112211;27;19908;-34
2022/01/07 03:44:10;;;;;;;;;;;;;;;1.35;76.52;93493.56;5110615;28;19915;-33
2022/01/07 03:46:35;;;;;;;;;;;;;;;1.25;76.67;93495.00;5111621;28;19912;-33
2022/01/07 03:49:01;;;;;;;;;;;;;;;1.27;76.85;93500.69;5111733;28;19911;-33
2022/01/07 03:51:26;;;;;;;;;;;;;;;1.30;76.97;93499.72;5111778;28;20148;-33
2022/01/07 03:53:51;;;;;;;;;;;;;;;1.26;76.60;93498.44;5110882;28;19960;-34
2022/01/07 03:56:18;;;;;;;;;;;;;;;1.22;77.20;93501.41;5111632;28;19968;-33
2022/01/07 03:58:47;;;;;;;;;;;;;;;1.22;77.07;93503.38;5111879;28;19907;-34
2022/01/07 04:01:12;;;;;;;;;;;;;;;1.23;77.15;93502.91;5111426;28;19923;-34
2022/01/07 04:03:37;;;;;;;;;;;;;;;1.36;77.04;93511.38;5111500;28;19911;-33
2022/01/07 04:06:03;;;;;;;;;;;;;;;1.48;76.51;93498.56;5111401;28;19908;-34
2022/01/07 04:08:28;;;;;;;;;;;;;;;1.45;76.51;93503.00;5111395;28;20304;-33
2022/01/07 04:10:53;;;;;;;;;;;;;;;1.58;76.81;93509.97;5111746;28;19998;-33
2022/01/07 04:13:19;;;;;;;;;;;;;;;1.45;76.44;93513.16;5111427;28;20299;-33
2022/01/07 04:15:44;;;;;;;;;;;;;;;1.62;76.60;93511.25;5111699;28;20331;-33
2022/01/07 04:18:10;;;;;;;;;;;;;;;1.80;75.47;93510.78;5111202;28;20129;-33
2022/01/07 04:20:35;;;;;;;;;;;;;;;1.82;75.71;93505.59;5111627;28;19960;-33
2022/01/07 04:23:00;;;;;;;;;;;;;;;1.87;75.57;93515.00;5111236;28;20377;-33
2022/01/07 04:25:26;;;;;;;;;;;;;;;2.01;74.21;93522.22;5111271;28;19915;-33
2022/01/07 04:27:57;;;;;;;;;;;;;;;2.04;74.44;93529.41;5111470;28;19990;-33
2022/01/07 04:30:22;;;;;;;;;;;;;;;1.83;75.06;93530.84;5111145;28;19934;-33
2022/01/07 04:32:48;;;;;;;;;;;;;;;1.77;76.36;93519.94;5111355;28;19911;-33
2022/01/07 04:35:14;;;;;;;;;;;;;;;1.94;75.50;93523.47;5111204;28;19938;-33
2022/01/07 04:37:39;;;;;;;;;;;;;;;1.67;76.64;93517.94;5111090;28;19964;-33
2022/01/07 04:40:05;;;;;;;;;;;;;;;1.62;77.80;93524.84;5144188;27;19940;-33
2022/01/07 04:42:31;;;;;;;;;;;;;;;1.66;77.28;93525.34;5110887;28;19911;-34
2022/01/07 04:44:56;;;;;;;;;;;;;;;1.75;77.00;93525.13;5111236;28;19912;-33
2022/01/07 04:47:21;;;;;;;;;;;;;;;1.81;77.23;93525.91;5110976;28;19915;-33
2022/01/07 04:49:47;;;;;;;;;;;;;;;1.94;76.16;93528.91;5111244;28;19963;-33
2022/01/07 04:52:12;;;;;;;;;;;;;;;2.16;75.62;93534.41;5110835;28;19908;-33
2022/01/07 04:54:37;;;;;;;;;;;;;;;2.27;75.01;93534.41;5143464;27;19908;-33
2022/01/07 04:57:03;;;;;;;;;;;;;;;2.33;75.23;93525.50;5110948;28;19908;-33
2022/01/07 04:59:28;;;;;;;;;;;;;;;2.24;75.46;93526.47;5110708;28;19915;-33
2022/01/07 05:01:54;;;;;;;;;;;;;;;2.18;75.08;93520.28;5111299;28;19915;-33
2022/01/07 05:04:20;;;;;;;;;;;;;;;2.39;74.96;93526.25;5110754;28;19939;-33
2022/01/07 05:06:45;;;;;;;;;;;;;;;2.44;74.77;93520.81;5114974;28;19915;-33
2022/01/07 05:09:16;;;;;;;;;;;;;;;2.26;74.71;93527.47;5114811;27;20002;-33
2022/01/07 05:11:41;;;;;;;;;;;;;;;2.36;73.92;93532.69;5115072;28;19932;-33
2022/01/07 05:14:06;;;;;;;;;;;;;;;2.25;74.56;93536.88;5114999;28;19911;-33
2022/01/07 05:16:32;;;;;;;;;;;;;;;2.13;74.92;93546.28;5114974;28;20354;-33
2022/01/07 05:18:57;;;;;;;;;;;;;;;1.87;75.60;93540.25;5114780;28;20293;-33
2022/01/07 05:21:23;;;;;;;;;;;;;;;1.95;76.25;93535.81;5114949;28;19908;-33
2022/01/07 05:23:48;;;;;;;;;;;;;;;1.82;75.97;93537.53;5114849;27;19972;-33
2022/01/07 05:26:13;;;;;;;;;;;;;;;1.75;76.56;93546.16;5114525;28;19908;-33
2022/01/07 05:28:39;;;;;;;;;;;;;;;1.71;76.30;93559.25;5147799;27;20292;-33
2022/01/07 05:31:04;;;;;;;;;;;;;;;1.63;77.11;93556.25;5114783;27;20403;-33
2022/01/07 05:33:29;;;;;;;;;;;;;;;1.67;76.32;93559.47;5114742;28;20376;-33
2022/01/07 05:35:55;;;;;;;;;;;;;;;1.76;76.04;93558.53;5114422;28;19907;-33
2022/01/07 05:38:20;;;;;;;;;;;;;;;1.72;76.40;93561.47;5114084;28;19911;-33
2022/01/07 05:40:45;;;;;;;;;;;;;;;1.70;77.44;93555.78;5114282;28;19915;-33
2022/01/07 05:43:11;;;;;;;;;;;;;;;1.66;77.03;93565.41;5114206;28;19907;-33
2022/01/07 05:45:36;;;;;;;;;;;;;;;1.36;77.30;93571.22;5114229;28;19907;-33
2022/01/07 05:48:03;;;;;;;;;;;;;;;1.22;79.01;93566.69;5114276;28;19908;-33
2022/01/07 05:50:28;;;;;;;;;;;;;;;1.22;78.76;93576.81;5114295;28;19911;-33
2022/01/07 05:52:54;;;;;;;;;;;;;;;1.37;78.70;93582.81;5113496;28;20341;-34
2022/01/07 05:55:19;;;;;;;;;;;;;;;1.53;77.75;93577.50;5113945;28;19911;-34
2022/01/07 05:57:44;;;;;;;;;;;;;;;1.47;77.58;93578.69;5112704;28;19908;-33
2022/01/07 06:00:10;;;;;;;;;;;;;;;1.49;77.88;93571.50;5113562;28;19923;-34
2022/01/07 06:02:35;;;;;;;;;;;;;;;1.57;77.74;93584.66;5114191;28;19950;-34
2022/01/07 06:05:01;;;;;;;;;;;;;;;1.62;77.42;93573.81;5114063;28;19914;-34
2022/01/07 06:07:26;;;;;;;;;;;;;;;1.66;77.65;93574.34;5113812;28;19912;-33
2022/01/07 06:09:51;;;;;;;;;;;;;;;1.70;77.57;93579.53;5113706;28;19912;-34
2022/01/07 06:12:17;;;;;;;;;;;;;;;1.70;77.56;93574.09;5113645;28;19915;-34
2022/01/07 06:14:42;;;;;;;;;;;;;;;1.86;75.91;93576.91;5113582;28;19908;-33
2022/01/07 06:17:11;;;;;;;;;;;;;;;1.84;76.14;93581.34;5113769;28;19908;-34
2022/01/07 06:19:37;;;;;;;;;;;;;;;1.84;76.23;93582.06;5113569;28;19912;-33
2022/01/07 06:22:03;;;;;;;;;;;;;;;1.87;75.89;93580.34;5113690;28;19907;-34
2022/01/07 06:24:28;;;;;;;;;;;;;;;1.83;76.31;93585.28;5113478;28;19955;-33
2022/01/07 06:26:54;;;;;;;;;;;;;;;1.88;75.70;93598.19;5113753;28;19915;-34
2022/01/07 06:29:19;;;;;;;;;;;;;;;1.78;75.42;93592.19;5146631;27;19998;-33
2022/01/07 06:31:44;;;;;;;;;;;;;;;1.42;76.98;93596.47;5113604;28;19914;-33
2022/01/07 06:34:09;;;;;;;;;;;;;;;1.28;76.94;93594.66;5113041;28;19926;-33
2022/01/07 06:36:35;;;;;;;;;;;;;;;1.19;77.60;93602.25;5113244;28;19911;-33
2022/01/07 06:39:00;;;;;;;;;;;;;;;1.42;77.21;93606.59;5113193;27;19915;-33
2022/01/07 06:41:25;;;;;;;;;;;;;;;1.59;76.77;93604.72;5113123;28;20434;-33
2022/01/07 06:43:51;;;;;;;;;;;;;;;1.36;77.14;93616.72;5112980;28;19960;-34
2022/01/07 06:46:16;;;;;;;;;;;;;;;1.39;76.95;93611.03;5112913;28;19958;-33
2022/01/07 06:48:41;;;;;;;;;;;;;;;1.28;78.13;93612.94;5112777;28;19922;-34
2022/01/07 06:51:07;;;;;;;;;;;;;;;1.27;77.60;93608.75;5113036;28;19938;-33
2022/01/07 06:53:32;;;;;;;;;;;;;;;1.40;77.40;93612.53;5112543;28;19996;-34
2022/01/07 06:55:57;;;;;;;;;;;;;;;1.43;76.70;93617.00;5113055;28;19995;-34
2022/01/07 06:58:23;;;;;;;;;;;;;;;1.51;77.14;93611.84;5112703;28;19943;-34
2022/01/07 07:00:48;;;;;;;;;;;;;;;1.64;76.42;93614.91;5112538;28;19920;-33
2022/01/07 07:03:13;;;;;;;;;;;;;;;1.84;75.80;93616.72;5112928;28;19915;-33
2022/01/07 07:05:39;;;;;;;;;;;;;;;1.99;76.17;93618.00;5112932;28;19935;-33
2022/01/07 07:08:04;;;;;;;;;;;;;;;1.75;76.16;93612.22;5112502;28;19914;-33
2022/01/07 07:10:29;;;;;;;;;;;;;;;1.74;76.23;93616.19;5112448;28;19919;-33
2022/01/07 07:12:55;;;;;;;;;;;;;;;1.80;76.53;93611.50;5112836;27;19907;-34
2022/01/07 07:15:20;;;;;;;;;;;;;;;2.03;75.97;93623.22;5112734;28;20388;-34
2022/01/07 07:17:45;;;;;;;;;;;;;;;2.23;75.20;93620.34;5112401;28;19908;-33
2022/01/07 07:20:12;;;;;;;;;;;;;;;2.34;74.73;93620.34;5112257;28;19941;-34
2022/01/07 07:22:37;;;;;;;;;;;;;;;2.04;75.49;93622.00;5112339;28;19911;-34
2022/01/07 07:25:03;;;;;;;;;;;;;;;2.21;75.71;93622.78;5112255;28;19915;-33
2022/01/07 07:27:28;;;;;;;;;;;;;;;2.27;75.82;93618.13;5111838;28;19912;-33
2022/01/07 07:29:54;;;;;;;;;;;;;;;2.40;75.84;93621.13;5112706;28;19916;-34
2022/01/07 07:32:25;;;;;;;;;;;;;;;2.60;75.39;93626.34;5111962;28;20157;-34
2022/01/07 07:37:22;;;;;;;;;;;;;;;2.75;73.90;93615.97;5112359;28;19907;-34
2022/01/07 07:39:47;;;;;;;;;;;;;;;3.02;73.41;93622.69;5112074;28;19914;-34
2022/01/07 07:42:12;;;;;;;;;;;;;;;3.21;72.95;93626.41;5111721;28;19911;-34
2022/01/07 07:44:38;;;;;;;;;;;;;;;3.38;71.79;93623.69;5111898;28;19916;-33
2022/01/07 07:47:03;;;;;;;;;;;;;;;3.50;70.75;93622.41;5111796;28;19961;-34
2022/01/07 07:49:29;;;;;;;;;;;;;;;3.68;71.00;93617.16;5112012;28;19911;-34
2022/01/07 07:51:54;;;;;;;;;;;;;;;3.82;70.57;93616.13;5111785;28;20416;-34
2022/01/07 07:54:20;;;;;;;;;;;;;;;3.97;69.24;93617.81;5111291;28;19911;-34
2022/01/07 07:56:45;;;;;;;;;;;;;;;4.04;68.94;93623.53;5111983;28;20384;-34
2022/01/07 07:59:11;;;;;;;;;;;;;;;4.15;68.51;93617.28;5111613;28;19915;-34
2022/01/07 08:01:36;;;;;;;;;;;;;;;4.19;67.66;93612.28;5111483;28;19969;-33
2022/01/07 08:04:03;;;;;;;;;;;;;;;4.14;68.15;93615.78;5111516;28;19914;-33
2022/01/07 08:06:29;;;;;;;;;;;;;;;4.14;68.16;93627.44;5111545;28;20415;-34
2022/01/07 08:08:54;;;;;;;;;;;;;;;4.17;68.16;93621.00;5111431;28;19912;-34
2022/01/07 08:11:22;;;;;;;;;;;;;;;4.17;67.88;93621.00;5111434;28;20006;-34
2022/01/07 08:16:31;;;;;;;;;;;;;;;3.88;68.65;93626.31;5111464;28;19937;-33
2022/01/07 08:18:57;;;;;;;;;;;;;;;3.70;68.63;93628.31;5111412;28;20358;-34
2022/01/07 08:21:24;;;;;;;;;;;;;;;3.62;69.69;93623.88;5110265;28;19907;-33
2022/01/07 08:23:50;;;;;;;;;;;;;;;3.64;69.76;93637.75;5143589;27;19955;-34
2022/01/07 08:26:16;;;;;;;;;;;;;;;3.76;69.97;93623.59;5111239;28;19941;-34
2022/01/07 08:28:52;;;;;;;;;;;;;;;3.81;68.97;93624.84;5111036;28;19912;-33
2022/01/07 08:36:34;;;;;;;;;;;;;;;3.73;70.22;93612.94;5139392;27;19915;-34
2022/01/07 08:38:59;;;;;;;;;;;;;;;3.45;69.79;93614.97;5111175;28;20025;-33
2022/01/07 08:41:28;;;;;;;;;;;;;;;3.39;70.92;93619.69;5114646;28;19969;-34
2022/01/07 08:43:54;;;;;;;;;;;;;;;3.59;70.80;93613.97;5115663;28;19966;-34
2022/01/07 08:46:20;;;;;;;;;;;;;;;3.53;70.54;93611.22;5115213;28;20411;-34
2022/01/07 08:48:45;;;;;;;;;;;;;;;3.41;70.71;93609.03;5115433;28;19907;-34
2022/01/07 08:51:10;;;;;;;;;;;;;;;3.52;70.48;93609.00;5115194;28;19969;-34
2022/01/07 08:53:36;;;;;;;;;;;;;;;3.28;71.17;93612.28;5114539;28;19908;-33
2022/01/07 08:56:01;;;;;;;;;;;;;;;3.42;71.58;93608.50;5115040;28;19907;-34
2022/01/07 08:58:27;;;;;;;;;;;;;;;3.33;70.45;93606.06;5115084;28;19911;-34
2022/01/07 09:00:52;;;;;;;;;;;;;;;3.37;70.49;93600.34;5114798;28;19922;-34
2022/01/07 09:03:17;;;;;;;;;;;;;;;3.54;70.17;93599.09;5115378;28;20528;-34
2022/01/07 09:05:43;;;;;;;;;;;;;;;3.72;70.19;93606.00;5114210;28;20282;-34
2022/01/07 09:08:10;;;;;;;;;;;;;;;3.75;70.67;93602.25;5114323;28;20006;-34
2022/01/07 09:10:36;;;;;;;;;;;;;;;3.95;69.57;93604.66;5115158;28;20362;-34
2022/01/07 09:13:01;;;;;;;;;;;;;;;3.98;69.03;93600.94;5114828;28;19994;-34
2022/01/07 09:15:26;;;;;;;;;;;;;;;4.03;69.58;93591.25;5114847;28;19961;-34
2022/01/07 09:17:52;;;;;;;;;;;;;;;4.06;69.04;93598.41;5114746;28;19915;-34
2022/01/07 09:20:17;;;;;;;;;;;;;;;4.10;68.43;93602.38;5114726;28;19923;-34
2022/01/07 09:22:42;;;;;;;;;;;;;;;4.00;68.62;93603.91;5115005;28;19907;-34
2022/01/07 09:25:08;;;;;;;;;;;;;;;4.07;68.68;93592.44;5114550;28;20396;-34
2022/01/07 09:27:33;;;;;;;;;;;;;;;4.05;67.57;93594.22;5114525;28;20384;-34
2022/01/07 09:29:59;;;;;;;;;;;;;;;4.04;68.05;93593.47;5114343;28;19940;-34
2022/01/07 09:32:24;;;;;;;;;;;;;;;4.05;68.30;93589.47;5114420;28;19907;-34
2022/01/07 09:34:49;;;;;;;;;;;;;;;4.02;68.00;93589.75;5114406;28;19908;-34
2022/01/07 09:37:15;;;;;;;;;;;;;;;4.15;68.65;93590.69;5114612;28;20395;-34
2022/01/07 09:39:40;;;;;;;;;;;;;;;4.14;68.36;93591.19;5114425;28;19915;-34
2022/01/07 09:42:06;;;;;;;;;;;;;;;4.19;67.29;93584.94;5114127;28;19915;-34
2022/01/07 09:44:35;;;;;;;;;;;;;;;4.11;67.22;93586.72;5114187;28;19990;-34
2022/01/07 09:47:00;;;;;;;;;;;;;;;4.18;67.76;93591.69;5114108;28;19915;-34
2022/01/07 09:49:27;;;;;;;;;;;;;;;4.15;67.84;93577.03;5112910;28;19911;-34
2022/01/07 09:51:52;;;;;;;;;;;;;;;4.07;67.72;93576.06;5113622;28;19908;-34
2022/01/07 09:54:18;;;;;;;;;;;;;;;3.97;67.84;93576.84;5113385;28;19912;-34
2022/01/07 09:56:43;;;;;;;;;;;;;;;4.07;67.75;93569.88;5113959;28;19961;-34
2022/01/07 09:59:08;;;;;;;;;;;;;;;4.25;66.97;93572.75;5114258;28;20293;-34
2022/01/07 10:01:52;;;;;;;;;;;;;;;4.24;67.99;93571.28;5113675;28;20407;-34
2022/01/07 10:04:27;;;;;;;;;;;;;;;4.20;68.62;93562.56;5114058;28;19916;-34
2022/01/07 10:07:11;;;;;;;;;;;;;;;4.45;68.31;93566.94;5113762;28;20388;-34
2022/01/07 10:09:38;;;;;;;;;;;;;;;4.58;66.46;93563.63;5114000;28;19980;-34
2022/01/07 10:12:03;;;;;;;;;;;;;;;4.62;65.40;93561.34;5113648;28;20015;-34
2022/01/07 10:14:30;;;;;;;;;;;;;;;4.35;66.21;93563.00;5114057;28;19933;-34
2022/01/07 10:16:59;;;;;;;;;;;;;;;4.30;65.88;93554.84;5113894;28;19911;-34
2022/01/07 10:19:35;;;;;;;;;;;;;;;4.50;64.77;93563.41;5113672;28;20335;-34
2022/01/07 10:22:04;;;;;;;;;;;;;;;4.57;64.20;93557.41;5113420;28;19931;-34
2022/01/07 10:24:30;;;;;;;;;;;;;;;4.64;64.49;93561.56;5113473;28;19908;-34
2022/01/07 10:27:28;;;;;;;;;;;;;;;4.69;64.56;93555.34;5146642;27;19914;-34
2022/01/07 10:29:53;;;;;;;;;;;;;;;4.62;65.36;93553.16;5100768;28;20378;-34
2022/01/07 10:32:29;;;;;;;;;;;;;;;4.70;64.72;93545.16;5113207;28;19920;-34
2022/01/07 10:35:00;;;;;;;;;;;;;;;4.60;64.91;93545.47;5113559;28;20304;-34
2022/01/07 10:37:25;;;;;;;;;;;;;;;4.68;63.57;93544.91;5113249;28;20462;-34
2022/01/07 10:39:51;;;;;;;;;;;;;;;4.80;63.62;93536.13;5113210;28;19911;-34
2022/01/07 10:42:21;;;;;;;;;;;;;;;4.93;62.25;93530.03;5112981;28;19960;-34
2022/01/07 10:45:05;;;;;;;;;;;;;;;5.06;62.57;93530.19;5113008;28;19908;-34
2022/01/07 10:47:30;;;;;;;;;;;;;;;5.00;61.89;93526.75;5113122;28;19911;-34
2022/01/07 10:50:14;;;;;;;;;;;;;;;5.06;60.63;93524.69;5112949;28;19919;-34
2022/01/07 10:52:40;;;;;;;;;;;;;;;4.91;57.67;93527.06;5111605;28;20399;-34
2022/01/07 10:55:12;;;;;;;;;;;;;;;4.96;56.19;93523.56;5112550;27;19908;-34
2022/01/07 10:57:44;;;;;;;;;;;;;;;5.06;56.17;93519.22;5112892;28;20407;-34
2022/01/07 11:00:09;;;;;;;;;;;;;;;5.09;55.60;93512.75;5145371;27;20412;-34
2022/01/07 11:02:35;;;;;;;;;;;;;;;5.17;54.06;93514.41;5112179;28;19914;-34
2022/01/07 11:05:00;;;;;;;;;;;;;;;5.25;55.08;93509.84;5112724;28;19912;-34
2022/01/07 11:07:26;;;;;;;;;;;;;;;5.14;54.57;93499.00;5112603;28;19967;-34
2022/01/07 11:09:51;;;;;;;;;;;;;;;5.36;54.27;93503.50;5145713;27;19918;-34
2022/01/07 11:12:16;;;;;;;;;;;;;;;5.36;54.39;93500.78;5112428;28;19911;-34
2022/01/07 11:14:42;;;;;;;;;;;;;;;5.40;53.25;93501.22;5112821;28;19907;-34
2022/01/07 11:17:10;;;;;;;;;;;;;;;5.44;54.27;93504.41;5112269;28;20315;-34
2022/01/07 11:19:41;;;;;;;;;;;;;;;5.41;56.03;93499.22;5112205;28;19915;-34
2022/01/07 11:22:10;;;;;;;;;;;;;;;5.52;54.15;93499.13;5112396;28;19963;-34
2022/01/07 11:24:36;;;;;;;;;;;;;;;5.64;55.29;93498.47;5112241;28;19914;-34
2022/01/07 11:27:08;;;;;;;;;;;;;;;5.72;54.35;93493.13;5112565;28;19907;-34
2022/01/07 11:29:59;;;;;;;;;;;;;;;5.86;54.09;93498.25;5112130;28;19973;-34
2022/01/07 11:32:27;;;;;;;;;;;;;;;6.00;53.26;93499.78;5106943;27;20045;-34
2022/01/07 11:34:53;;;;;;;;;;;;;;;5.95;53.12;93497.13;5112066;28;19911;-34
2022/01/07 11:37:33;;;;;;;;;;;;;;;5.84;53.30;93492.53;5145325;27;19914;-34
2022/01/07 11:39:59;;;;;;;;;;;;;;;5.78;52.29;93491.81;5111996;28;19907;-34
2022/01/07 11:42:37;;;;;;;;;;;;;;;5.72;52.10;93485.66;5145323;27;19915;-34
2022/01/07 11:45:23;;;;;;;;;;;;;;;5.57;52.78;93485.34;5111913;28;19938;-34
2022/01/07 11:47:49;;;;;;;;;;;;;;;5.64;52.01;93484.03;5111753;28;19908;-34
2022/01/07 11:50:14;;;;;;;;;;;;;;;5.70;52.50;93487.44;5111587;28;19918;-34
2022/01/07 11:52:39;;;;;;;;;;;;;;;5.77;52.05;93482.13;5110669;28;19907;-34
2022/01/07 11:55:28;;;;;;;;;;;;;;;5.98;52.35;93480.38;5111079;28;19907;-34
2022/01/07 11:57:57;;;;;;;;;;;;;;;6.13;51.45;93475.19;5112021;28;19908;-34
2022/01/07 12:00:41;;;;;;;;;;;;;;;6.19;50.63;93471.66;5111507;28;19916;-34
2022/01/07 12:03:06;;;;;;;;;;;;;;;6.31;49.57;93475.72;5111598;28;20372;-34
2022/01/07 12:05:32;;;;;;;;;;;;;;;6.23;51.26;93467.34;5111608;28;19997;-34
2022/01/07 12:07:58;;;;;;;;;;;;;;;6.28;51.14;93469.25;5111776;28;19919;-34
2022/01/07 12:10:24;;;;;;;;;;;;;;;6.43;49.48;93474.28;5111609;28;20003;-34
2022/01/07 12:12:50;;;;;;;;;;;;;;;6.59;49.22;93476.03;5111362;28;19912;-34
2022/01/07 12:15:15;;;;;;;;;;;;;;;6.50;49.27;93468.94;5110073;28;19961;-34
2022/01/07 12:17:41;;;;;;;;;;;;;;;6.53;49.58;93472.63;5111712;28;19965;-34
2022/01/07 12:20:28;;;;;;;;;;;;;;;6.38;50.91;93467.63;5111262;28;19907;-34
2022/01/07 12:22:54;;;;;;;;;;;;;;;6.30;51.53;93474.25;5104255;28;19908;-34
2022/01/07 12:25:19;;;;;;;;;;;;;;;6.31;51.13;93475.72;5111314;28;20453;-34
2022/01/07 12:27:45;;;;;;;;;;;;;;;6.33;51.69;93465.69;5111295;28;19908;-34
2022/01/07 12:30:12;;;;;;;;;;;;;;;6.38;49.60;93475.84;5144181;27;19916;-34
2022/01/07 12:32:38;;;;;;;;;;;;;;;6.29;49.45;93470.00;5111510;28;19980;-34
2022/01/07 12:35:04;;;;;;;;;;;;;;;6.26;50.82;93471.06;5111429;28;19908;-34
2022/01/07 12:37:29;;;;;;;;;;;;;;;6.20;49.04;93475.84;5109946;28;20003;-34
2022/01/07 12:39:56;;;;;;;;;;;;;;;6.08;49.36;93484.25;5111436;28;20052;-34
2022/01/07 12:42:21;;;;;;;;;;;;;;;6.02;48.65;93486.31;5111054;28;20047;-34
2022/01/07 12:44:54;;;;;;;;;;;;;;;5.92;49.07;93484.47;5111102;28;20405;-34
2022/01/07 12:47:21;;;;;;;;;;;;;;;5.98;49.66;93474.16;5111094;28;19916;-34
2022/01/07 12:49:51;;;;;;;;;;;;;;;5.78;48.60;93471.91;5110961;28;19965;-34
2022/01/07 12:52:17;;;;;;;;;;;;;;;5.81;48.72;93474.34;5111180;28;20381;-34
2022/01/07 12:54:50;;;;;;;;;;;;;;;5.85;49.09;93477.56;5110657;28;19964;-34
2022/01/07 12:57:22;;;;;;;;;;;;;;;5.78;49.09;93469.91;5111330;28;19911;-34
2022/01/07 12:59:49;;;;;;;;;;;;;;;5.83;48.67;93471.09;5110785;28;20453;-34
2022/01/07 13:02:24;;;;;;;;;;;;;;;5.99;48.57;93470.19;5110834;28;19912;-34
2022/01/07 13:04:50;;;;;;;;;;;;;;;5.82;48.61;93472.38;5126846;28;19929;-34